Time;durP1;ratioP1;P1;durP2;ratioP2;P2;SDS_P1;SDS_P2;PMS_P1;PMS_P2;Temp;Humidity;BMP_temperature;BMP_pressure;BME280_temperature;BME280_humidity;BME280_pressure;Samples;Min_cycle;Max_cycle;Signal;HPM_P1;HPM_P2
2022/01/29 00:00:00;;;;;;;3.97;2.08;;;;;;;1.93;47.73;96735.88;5095848;28;20031;-61
2022/01/29 00:02:25;;;;;;;4.28;2.08;;;;;;;1.99;47.26;96739.28;5095662;28;20055;-61
2022/01/29 00:04:51;;;;;;;2.15;1.50;;;;;;;1.97;47.33;96732.44;5095620;28;20059;-61
2022/01/29 00:07:17;;;;;;;1.77;1.42;;;;;;;1.94;47.33;96732.44;5095721;28;20020;-61
2022/01/29 00:09:44;;;;;;;5.05;1.67;;;;;;;1.84;47.94;96732.41;5095596;28;20152;-62
2022/01/29 00:12:10;;;;;;;4.05;1.75;;;;;;;1.80;47.98;96737.59;5095481;28;20028;-60
2022/01/29 00:14:36;;;;;;;4.20;1.92;;;;;;;1.68;48.10;96723.81;5095339;28;20493;-63
2022/01/29 00:17:03;;;;;;;2.55;1.42;;;;;;;1.66;48.36;96728.16;5095306;28;20024;-62
2022/01/29 00:19:28;;;;;;;3.58;1.48;;;;;;;1.62;48.35;96742.75;5095420;28;20020;-63
2022/01/29 00:21:54;;;;;;;3.60;1.70;;;;;;;1.60;48.31;96736.72;5095250;28;20059;-62
2022/01/29 00:24:20;;;;;;;5.68;2.17;;;;;;;1.55;48.19;96741.03;5095313;28;20050;-61
2022/01/29 00:26:45;;;;;;;6.35;2.33;;;;;;;1.45;48.90;96749.59;5095312;28;20496;-62
2022/01/29 00:29:19;;;;;;;2.42;1.77;;;;;;;1.35;48.97;96752.16;5095185;28;20382;-62
2022/01/29 00:31:44;;;;;;;1.80;1.52;;;;;;;1.29;49.31;96746.97;5095275;28;20470;-62
2022/01/29 00:34:10;;;;;;;1.50;1.27;;;;;;;1.30;49.67;96746.16;5093977;28;20127;-62
2022/01/29 00:36:36;;;;;;;2.33;1.42;;;;;;;1.32;49.69;96738.41;5095062;28;20024;-62
2022/01/29 00:39:02;;;;;;;2.33;1.63;;;;;;;1.36;49.32;96750.44;5094981;28;20016;-63
2022/01/29 00:41:28;;;;;;;1.55;1.33;;;;;;;1.29;49.53;96744.41;5094854;28;20020;-62
2022/01/29 00:43:54;;;;;;;9.60;3.90;;;;;;;1.32;49.82;96743.56;5095036;28;20016;-63
2022/01/29 00:46:19;;;;;;;6.72;3.42;;;;;;;1.32;49.51;96743.56;5094850;28;20024;-63
2022/01/29 00:48:45;;;;;;;2.67;1.40;;;;;;;1.30;48.98;96745.28;5094966;28;20031;-62
2022/01/29 00:51:10;;;;;;;5.63;1.65;;;;;;;1.31;49.20;96745.28;5094721;28;20051;-62
2022/01/29 00:53:36;;;;;;;9.30;2.10;;;;;;;1.35;49.31;96743.56;5094366;28;20020;-62
2022/01/29 00:56:06;;;;;;;3.45;2.15;;;;;;;1.32;49.25;96739.25;5094650;28;20047;-63
2022/01/29 00:58:33;;;;;;;4.93;2.03;;;;;;;1.26;48.91;96729.81;5094687;28;20024;-62
2022/01/29 01:00:59;;;;;;;7.95;3.03;;;;;;;1.24;48.99;96734.09;5094548;28;20025;-60
2022/01/29 01:03:24;;;;;;;4.43;2.08;;;;;;;1.23;49.09;96734.94;5094540;28;20027;-63
2022/01/29 01:05:50;;;;;;;3.67;1.60;;;;;;;1.33;48.89;96738.44;5094414;28;20024;-63
2022/01/29 01:08:15;;;;;;;2.70;1.50;;;;;;;1.30;49.38;96737.53;5094414;28;20027;-62
2022/01/29 01:10:41;;;;;;;3.17;1.30;;;;;;;1.32;48.93;96735.84;5094383;28;20028;-62
2022/01/29 01:13:07;;;;;;;2.13;1.33;;;;;;;1.26;49.30;96740.13;5094344;28;20073;-62
2022/01/29 01:15:33;;;;;;;2.83;1.08;;;;;;;1.27;49.31;96741.00;5094243;28;20486;-62
2022/01/29 01:17:58;;;;;;;1.70;1.15;;;;;;;1.29;49.42;96741.00;5094122;28;20035;-62
2022/01/29 01:20:24;;;;;;;4.05;1.40;;;;;;;1.29;49.21;96726.38;5093974;28;20051;-62
2022/01/29 01:22:49;;;;;;;1.65;1.35;;;;;;;1.32;49.25;96744.41;5094200;28;20048;-62
2022/01/29 01:25:15;;;;;;;2.13;1.52;;;;;;;1.28;49.32;96741.81;5094080;28;20035;-62
2022/01/29 01:27:41;;;;;;;2.78;1.60;;;;;;;1.26;49.58;96742.69;5094162;28;20031;-61
2022/01/29 01:30:07;;;;;;;1.42;1.10;;;;;;;1.20;49.40;96734.09;5093954;28;20036;-62
2022/01/29 01:32:32;;;;;;;4.25;1.20;;;;;;;1.19;49.66;96728.06;5094035;28;20020;-61
2022/01/29 01:35:08;;;;;;;3.38;1.48;;;;;;;1.19;49.79;96730.66;5093998;28;20381;-62
2022/01/29 01:37:45;;;;;;;2.80;1.27;;;;;;;1.10;49.88;96726.34;5093963;28;20032;-61
2022/01/29 01:40:11;;;;;;;2.22;1.40;;;;;;;1.08;49.53;96735.78;5093903;28;20036;-62
2022/01/29 01:42:37;;;;;;;1.77;1.15;;;;;;;1.05;50.02;96735.75;5093848;28;20024;-61
2022/01/29 01:45:03;;;;;;;4.38;1.90;;;;;;;0.96;50.00;96728.03;5093653;28;20024;-61
2022/01/29 01:47:29;;;;;;;4.53;2.30;;;;;;;0.81;50.50;96726.25;5093727;28;20385;-62
2022/01/29 01:49:54;;;;;;;7.35;2.78;;;;;;;0.72;50.60;96714.19;5093793;28;20031;-62
2022/01/29 01:52:20;;;;;;;4.60;2.47;;;;;;;0.65;50.83;96717.56;5093540;28;20074;-62
2022/01/29 01:54:45;;;;;;;3.17;1.95;;;;;;;0.50;51.26;96720.13;5092272;28;20115;-61
2022/01/29 01:57:11;;;;;;;2.90;1.73;;;;;;;0.36;51.96;96725.19;5093608;28;20020;-61
2022/01/29 01:59:37;;;;;;;3.03;1.70;;;;;;;0.30;52.33;96729.44;5093634;28;20042;-62
2022/01/29 02:02:03;;;;;;;4.25;2.17;;;;;;;0.20;52.13;96728.50;5093496;28;20531;-62
2022/01/29 02:04:30;;;;;;;4.75;1.83;;;;;;;0.12;52.81;96738.78;5093117;28;20025;-62
2022/01/29 02:06:56;;;;;;;2.47;1.60;;;;;;;0.09;52.69;96739.59;5092920;28;20027;-62
2022/01/29 02:09:24;;;;;;;2.08;1.38;;;;;;;0.13;52.29;96750.78;5093344;28;20016;-62
2022/01/29 02:11:52;;;;;;;2.25;1.23;;;;;;;0.19;52.35;96737.09;5093267;28;20035;-62
2022/01/29 02:14:29;;;;;;;4.28;1.65;;;;;;;0.31;51.89;96738.88;5093413;28;20051;-62
2022/01/29 02:16:55;;;;;;;3.03;1.42;;;;;;;0.37;51.72;96731.19;5093338;28;20051;-62
2022/01/29 02:19:20;;;;;;;2.33;1.38;;;;;;;0.38;51.49;96732.91;5093223;28;20624;-62
2022/01/29 02:21:46;;;;;;;2.53;1.45;;;;;;;0.38;51.50;96730.34;5093083;28;20039;-63
2022/01/29 02:24:12;;;;;;;2.60;1.75;;;;;;;0.29;52.14;96738.00;5093196;28;20072;-62
2022/01/29 02:26:37;;;;;;;2.47;2.00;;;;;;;0.21;52.48;96746.53;5093161;28;20370;-63
2022/01/29 02:29:04;;;;;;;2.53;1.75;;;;;;;0.05;53.02;96740.44;5093161;28;20017;-62
2022/01/29 02:31:30;;;;;;;4.38;1.48;;;;;;;-0.13;52.81;96746.28;5093160;28;20575;-62
2022/01/29 02:33:55;;;;;;;2.63;1.50;;;;;;;-0.44;53.49;96740.91;5093043;28;20099;-62
2022/01/29 02:36:21;;;;;;;3.13;2.15;;;;;;;-0.61;54.04;96744.19;5093084;28;20031;-62
2022/01/29 02:38:47;;;;;;;2.63;1.73;;;;;;;-0.71;54.58;96735.53;5093095;28;20038;-62
2022/01/29 02:41:12;;;;;;;5.18;2.05;;;;;;;-0.82;54.85;96735.41;5093062;28;20039;-62
2022/01/29 02:48:46;;;;;;;5.68;1.60;;;;;;;-1.04;55.61;96742.91;5093127;28;20028;-62
2022/01/29 02:51:12;;;;;;;3.25;1.45;;;;;;;-1.04;56.41;96758.31;5093013;28;20072;-62
2022/01/29 02:53:38;;;;;;;2.97;1.80;;;;;;;-1.14;56.37;96761.63;5092899;28;20051;-62
2022/01/29 02:56:05;;;;;;;5.22;3.15;;;;;;;-1.18;55.73;96760.69;5092923;28;20374;-63
2022/01/29 02:58:30;;;;;;;2.78;1.85;;;;;;;-1.24;56.47;96764.91;5093026;28;20031;-62
2022/01/29 03:00:56;;;;;;;3.60;1.73;;;;;;;-1.28;56.37;96766.56;5092882;28;20024;-62
2022/01/29 03:03:22;;;;;;;4.88;1.60;;;;;;;-1.53;56.91;96758.56;5092787;28;20050;-62
2022/01/29 03:05:47;;;;;;;5.78;2.35;;;;;;;-1.51;56.66;96774.81;5092800;28;20378;-62
2022/01/29 03:08:13;;;;;;;6.03;2.72;;;;;;;-1.53;56.70;96764.53;5092752;28;20102;-62
2022/01/29 03:10:38;;;;;;;6.97;2.13;;;;;;;-1.54;56.76;96769.66;5092809;28;20016;-62
2022/01/29 03:13:04;;;;;;;2.75;1.60;;;;;;;-1.57;56.80;96775.59;5092909;28;20027;-62
2022/01/29 03:15:30;;;;;;;1.70;1.15;;;;;;;-1.61;56.69;96781.53;5092808;28;20481;-62
2022/01/29 03:17:55;;;;;;;3.10;1.52;;;;;;;-1.70;57.48;96778.84;5095797;28;20028;-62
2022/01/29 03:20:21;;;;;;;2.33;0.93;;;;;;;-1.74;57.94;96779.63;5096286;28;20036;-62
2022/01/29 03:22:47;;;;;;;3.67;1.00;;;;;;;-1.77;57.71;96777.91;5096506;28;20150;-62
2022/01/29 03:25:13;;;;;;;1.80;1.15;;;;;;;-1.80;57.68;96768.44;5096505;28;20111;-62
2022/01/29 03:27:39;;;;;;;4.10;1.30;;;;;;;-1.91;57.89;96780.25;5096387;28;20386;-63
2022/01/29 03:30:06;;;;;;;1.50;1.13;;;;;;;-2.06;57.93;96788.56;5096439;28;20028;-62
2022/01/29 03:32:32;;;;;;;2.15;1.15;;;;;;;-2.14;58.20;96787.59;5096197;28;20020;-62
2022/01/29 03:34:58;;;;;;;1.77;1.02;;;;;;;-2.23;58.36;96791.72;5096331;28;20457;-62
2022/01/29 03:37:23;;;;;;;1.60;1.20;;;;;;;-2.27;58.59;96795.06;5096177;28;20103;-63
2022/01/29 03:39:50;;;;;;;2.08;1.27;;;;;;;-2.39;58.33;96797.41;5096227;28;20019;-62
2022/01/29 03:42:15;;;;;;;2.03;1.20;;;;;;;-2.48;59.12;96799.00;5096116;28;20035;-60
2022/01/29 03:44:41;;;;;;;3.38;1.23;;;;;;;-2.62;59.81;96796.16;5095929;28;20470;-62
2022/01/29 03:47:07;;;;;;;3.50;2.05;;;;;;;-2.72;59.60;96801.97;5096095;28;20028;-60
2022/01/29 03:49:33;;;;;;;2.75;1.70;;;;;;;-2.73;59.99;96795.13;5095961;28;20107;-61
2022/01/29 03:51:59;;;;;;;3.97;1.10;;;;;;;-2.81;59.69;96790.72;5094803;28;20067;-61
2022/01/29 03:54:24;;;;;;;1.73;1.30;;;;;;;-2.88;59.90;96782.88;5095743;28;20060;-61
2022/01/29 03:56:50;;;;;;;1.50;1.20;;;;;;;-2.87;60.09;96784.59;5095796;28;20092;-61
2022/01/29 03:59:15;;;;;;;3.38;1.98;;;;;;;-2.97;60.18;96794.69;5095687;28;20135;-61
2022/01/29 04:01:41;;;;;;;3.28;1.00;;;;;;;-2.97;60.40;96796.38;5095739;28;20035;-61
2022/01/29 04:04:06;;;;;;;1.52;1.10;;;;;;;-3.05;60.38;96803.91;5095716;28;20012;-61
2022/01/29 04:06:32;;;;;;;2.83;1.83;;;;;;;-3.14;60.68;96796.91;5095622;28;20065;-61
2022/01/29 04:08:58;;;;;;;3.67;1.55;;;;;;;-3.20;61.16;96802.75;5095596;28;20090;-61
2022/01/29 04:11:24;;;;;;;1.98;1.00;;;;;;;-3.23;61.88;96809.50;5095435;28;20507;-60
2022/01/29 04:13:50;;;;;;;12.13;5.63;;;;;;;-3.21;61.55;96806.16;5095499;28;20020;-62
2022/01/29 04:16:17;;;;;;;10.43;6.60;;;;;;;-3.22;61.80;96801.00;5095497;28;20034;-61
2022/01/29 04:18:43;;;;;;;3.50;1.88;;;;;;;-3.28;61.92;96800.88;5095325;28;20024;-61
2022/01/29 04:21:09;;;;;;;3.38;1.75;;;;;;;-3.27;61.88;96806.03;5095162;28;20131;-61
2022/01/29 04:23:35;;;;;;;1.58;1.40;;;;;;;-3.28;61.87;96799.19;5095342;28;20052;-60
2022/01/29 04:26:02;;;;;;;1.83;1.08;;;;;;;-3.24;61.92;96807.78;5095159;28;20111;-60
2022/01/29 04:28:36;;;;;;;2.25;1.25;;;;;;;-3.21;61.86;96807.84;5094553;28;20102;-61
2022/01/29 04:31:08;;;;;;;3.75;1.40;;;;;;;-3.29;61.89;96810.25;5095318;28;20103;-61
2022/01/29 04:33:33;;;;;;;2.80;1.77;;;;;;;-3.39;62.73;96816.00;5095148;28;20054;-61
2022/01/29 04:36:01;;;;;;;4.50;2.20;;;;;;;-3.44;63.04;96818.44;5095026;28;20020;-60
2022/01/29 04:38:29;;;;;;;3.50;1.65;;;;;;;-3.40;63.06;96827.94;5095077;28;20048;-60
2022/01/29 04:40:56;;;;;;;1.70;1.17;;;;;;;-3.38;62.49;96836.50;5094957;28;20103;-62
2022/01/29 04:43:21;;;;;;;1.77;1.30;;;;;;;-3.41;62.84;96838.16;5094886;28;20462;-62
2022/01/29 04:45:47;;;;;;;1.63;1.25;;;;;;;-3.46;62.72;96844.00;5094837;28;20028;-62
2022/01/29 04:48:13;;;;;;;4.60;0.90;;;;;;;-3.47;63.06;96843.97;5094852;28;20020;-61
2022/01/29 04:50:39;;;;;;;4.00;2.33;;;;;;;-3.59;63.28;96842.88;5094798;28;20474;-61
2022/01/29 04:53:05;;;;;;;3.95;1.30;;;;;;;-3.65;63.72;96854.66;5094793;28;20179;-61
2022/01/29 04:55:32;;;;;;;6.25;2.55;;;;;;;-3.69;63.78;96852.03;5094817;28;20558;-61
2022/01/29 04:57:57;;;;;;;5.78;1.33;;;;;;;-3.70;63.97;96846.88;5094709;28;20027;-61
2022/01/29 05:00:23;;;;;;;4.25;1.70;;;;;;;-3.72;64.53;96846.84;5094581;28;20382;-60
2022/01/29 05:02:51;;;;;;;2.45;1.67;;;;;;;-3.73;64.51;96849.38;5094440;28;20016;-61
2022/01/29 05:05:16;;;;;;;2.30;1.30;;;;;;;-3.76;64.23;96845.06;5094415;28;20028;-60
2022/01/29 05:07:42;;;;;;;2.90;1.73;;;;;;;-3.75;64.60;96845.91;5094503;28;20165;-61
2022/01/29 05:10:08;;;;;;;3.33;2.08;;;;;;;-3.78;64.40;96836.47;5094431;28;20028;-60
2022/01/29 05:12:45;;;;;;;48.30;30.95;;;;;;;-3.85;64.57;96842.28;5094463;28;20012;-62
2022/01/29 05:28:45;;;;;;;3.90;2.35;;;;;;;-4.02;65.46;96864.84;5094536;28;20062;-60
2022/01/29 05:31:10;;;;;;;2.33;1.30;;;;;;;-3.98;65.48;96870.09;5093961;28;20056;-61
2022/01/29 05:33:36;;;;;;;4.57;1.55;;;;;;;-3.97;65.58;96871.81;5093854;28;20466;-61
2022/01/29 05:36:01;;;;;;;5.75;1.90;;;;;;;-3.98;65.38;96874.31;5093927;28;20034;-61
2022/01/29 05:38:27;;;;;;;3.70;3.05;;;;;;;-4.06;65.39;96871.59;5093838;28;20024;-61
2022/01/29 05:40:56;;;;;;;4.57;3.20;;;;;;;-4.13;66.03;96867.16;5092883;28;20042;-61
2022/01/29 05:43:23;;;;;;;3.22;2.50;;;;;;;-4.13;66.23;96877.38;5093777;28;20039;-61
2022/01/29 05:45:49;;;;;;;4.40;1.40;;;;;;;-4.16;66.65;96877.31;5093631;28;20024;-61
2022/01/29 05:48:15;;;;;;;7.95;3.75;;;;;;;-4.18;67.27;96872.16;5093599;28;20020;-61
2022/01/29 05:50:41;;;;;;;5.15;3.03;;;;;;;-4.28;66.98;96883.81;5093621;28;20097;-63
2022/01/29 05:53:06;;;;;;;9.73;4.75;;;;;;;-4.23;67.04;96886.50;5093698;28;20474;-61
2022/01/29 05:55:32;;;;;;;12.80;7.03;;;;;;;-4.25;67.29;96883.06;5093544;28;20411;-61
2022/01/29 05:57:58;;;;;;;4.47;2.60;;;;;;;-4.16;67.42;96890.09;5093531;28;20024;-61
2022/01/29 06:00:24;;;;;;;8.02;2.65;;;;;;;-4.13;67.42;96897.84;5093576;28;20031;-60
2022/01/29 06:03:09;;;;;;;4.65;2.45;;;;;;;-4.07;67.61;96905.63;5093562;28;20472;-61
2022/01/29 06:05:35;;;;;;;14.15;6.10;;;;;;;-4.01;68.23;96893.00;5093373;28;20551;-62
2022/01/29 06:08:01;;;;;;;4.20;3.30;;;;;;;-3.95;68.58;96894.84;5093449;28;20494;-60
2022/01/29 06:10:27;;;;;;;4.28;2.80;;;;;;;-3.93;68.58;96898.31;5093259;28;20027;-61
2022/01/29 06:12:58;;;;;;;5.18;2.90;;;;;;;-3.80;68.59;96896.94;5093392;28;20371;-61
2022/01/29 06:15:24;;;;;;;5.93;2.03;;;;;;;-3.69;68.24;96913.41;5093333;28;20016;-61
2022/01/29 06:17:50;;;;;;;2.45;1.35;;;;;;;-3.21;67.37;96910.22;5093407;28;20062;-60
2022/01/29 06:20:15;;;;;;;5.55;3.50;;;;;;;-2.12;64.54;96911.53;5093018;28;20040;-61
2022/01/29 06:22:42;;;;;;;4.90;3.28;;;;;;;-1.52;61.33;96919.38;5093190;28;20032;-60
2022/01/29 06:25:08;;;;;;;5.35;4.57;;;;;;;-1.44;60.63;96909.25;5093137;28;20042;-61
2022/01/29 06:27:33;;;;;;;4.30;3.38;;;;;;;-1.46;60.85;96919.50;5093173;28;20532;-61
2022/01/29 06:29:59;;;;;;;3.78;1.90;;;;;;;-1.42;60.79;96917.81;5093189;28;20024;-62
2022/01/29 06:32:25;;;;;;;6.28;2.00;;;;;;;-1.36;60.73;96922.22;5093077;28;20016;-62
2022/01/29 06:34:50;;;;;;;4.40;2.45;;;;;;;-1.36;61.78;96922.22;5093123;28;20036;-62
2022/01/29 06:37:16;;;;;;;5.75;2.20;;;;;;;-1.28;61.56;96913.78;5093006;28;20024;-63
2022/01/29 06:39:41;;;;;;;4.95;2.58;;;;;;;-1.20;62.11;96920.72;5092971;28;20021;-61
2022/01/29 06:42:07;;;;;;;6.75;2.20;;;;;;;-1.11;62.26;96914.88;5093035;28;20024;-61
2022/01/29 06:44:32;;;;;;;3.42;1.85;;;;;;;-0.23;61.24;96922.81;5092951;28;20012;-62
2022/01/29 06:46:58;;;;;;;3.53;2.15;;;;;;;0.90;58.10;96911.75;5092967;28;20024;-61
2022/01/29 06:49:23;;;;;;;3.85;1.60;;;;;;;1.59;55.08;96915.53;5092985;28;20381;-62
2022/01/29 06:51:49;;;;;;;9.98;6.68;;;;;;;1.86;53.95;96905.28;5094390;28;20028;-63
2022/01/29 06:54:15;;;;;;;8.45;3.50;;;;;;;2.69;52.84;96911.41;5097124;28;20533;-63
2022/01/29 06:56:40;;;;;;;6.82;3.85;;;;;;;3.75;50.01;96911.13;5096990;28;20059;-62
2022/01/29 06:59:06;;;;;;;7.78;3.65;;;;;;;4.71;47.69;96918.25;5096990;28;20024;-61
2022/01/29 07:01:31;;;;;;;7.18;2.92;;;;;;;5.28;45.83;96925.50;5096882;28;20020;-63
2022/01/29 07:03:57;;;;;;;5.35;3.10;;;;;;;5.59;45.50;96929.47;5096884;28;20020;-63
2022/01/29 07:06:23;;;;;;;5.50;3.33;;;;;;;5.71;44.95;96925.00;5096798;28;20040;-63
2022/01/29 07:08:49;;;;;;;5.45;3.83;;;;;;;5.61;44.75;96926.88;5096886;28;20040;-63
2022/01/29 07:11:19;;;;;;;10.70;5.95;;;;;;;6.16;43.41;96922.72;5096583;28;20028;-63
2022/01/29 07:13:45;;;;;;;4.78;3.10;;;;;;;6.76;42.59;96927.00;5096867;28;20105;-63
2022/01/29 07:16:11;;;;;;;4.80;3.50;;;;;;;7.74;41.48;96927.84;5096643;28;20428;-63
2022/01/29 07:18:36;;;;;;;3.15;2.50;;;;;;;8.88;38.26;96927.91;5096675;28;20028;-63
2022/01/29 07:21:05;;;;;;;7.88;4.70;;;;;;;9.42;37.97;96928.28;5096245;28;20043;-64
2022/01/29 07:23:31;;;;;;;4.30;3.03;;;;;;;10.40;36.29;96923.75;5096632;28;20031;-63
2022/01/29 07:25:57;;;;;;;5.55;3.25;;;;;;;10.81;34.17;96934.69;5096480;28;20020;-64
2022/01/29 07:28:22;;;;;;;5.32;3.38;;;;;;;10.92;34.35;96946.56;5096599;28;20417;-63
2022/01/29 07:30:48;;;;;;;5.97;3.72;;;;;;;10.70;34.46;96936.78;5096439;28;20081;-62
2022/01/29 07:33:14;;;;;;;4.72;3.17;;;;;;;10.96;34.04;96943.78;5096431;28;20111;-63
2022/01/29 07:35:39;;;;;;;5.30;3.38;;;;;;;11.04;33.40;96946.16;5096194;28;20024;-63
2022/01/29 07:38:05;;;;;;;10.88;4.78;;;;;;;10.95;33.78;96955.16;5096237;28;20024;-64
2022/01/29 07:40:31;;;;;;;5.97;2.70;;;;;;;10.23;34.58;96956.50;5096327;28;20032;-63
2022/01/29 07:42:56;;;;;;;6.97;3.30;;;;;;;10.43;34.58;96950.66;5096268;28;20070;-63
2022/01/29 07:45:22;;;;;;;4.78;2.22;;;;;;;10.44;34.09;96956.75;5096091;28;20036;-62
2022/01/29 07:47:48;;;;;;;4.05;2.38;;;;;;;10.63;34.39;96956.22;5095981;28;20020;-63
2022/01/29 07:50:14;;;;;;;3.22;2.42;;;;;;;11.70;32.84;96955.25;5096059;28;20024;-64
2022/01/29 07:52:39;;;;;;;5.15;2.15;;;;;;;12.53;31.19;96962.72;5096014;28;20020;-64
2022/01/29 07:55:07;;;;;;;2.60;2.38;;;;;;;12.85;30.42;96954.47;5096025;28;20028;-66
2022/01/29 07:57:33;;;;;;;3.67;2.05;;;;;;;12.70;30.18;96964.66;5094766;28;20093;-64
2022/01/29 07:59:59;;;;;;;2.05;1.70;;;;;;;12.92;29.71;96955.94;5095721;28;20063;-65
2022/01/29 08:02:25;;;;;;;3.20;1.52;;;;;;;12.86;29.26;96962.28;5095469;28;20095;-64
2022/01/29 08:04:50;;;;;;;2.25;1.50;;;;;;;12.48;30.52;96964.66;5094956;28;20024;-64
2022/01/29 08:07:16;;;;;;;2.33;1.77;;;;;;;13.18;29.34;96968.91;5095721;28;20024;-64
2022/01/29 08:09:42;;;;;;;2.47;1.80;;;;;;;13.02;29.46;96969.53;5095665;28;20024;-62
2022/01/29 08:12:08;;;;;;;3.40;1.88;;;;;;;12.43;30.31;96964.84;5095669;28;20478;-62
2022/01/29 08:14:33;;;;;;;2.85;1.63;;;;;;;13.13;29.65;96977.81;5095734;28;20040;-65
2022/01/29 08:16:59;;;;;;;3.40;2.30;;;;;;;12.42;30.16;96970.16;5095564;28;20024;-64
2022/01/29 08:19:25;;;;;;;2.63;2.03;;;;;;;12.69;30.39;96969.97;5095603;28;20024;-65
2022/01/29 08:21:50;;;;;;;2.85;1.92;;;;;;;13.09;29.75;96978.00;5095254;28;20064;-63
2022/01/29 08:24:16;;;;;;;3.13;2.40;;;;;;;12.71;29.61;96981.28;5095320;28;20020;-64
2022/01/29 08:26:42;;;;;;;3.65;2.63;;;;;;;12.12;30.92;96982.63;5095405;28;20401;-64
2022/01/29 08:29:07;;;;;;;2.67;2.00;;;;;;;11.75;31.33;96989.16;5094834;28;20028;-63
2022/01/29 08:31:33;;;;;;;2.40;1.95;;;;;;;12.06;31.39;96988.06;5095283;28;20020;-62
2022/01/29 08:33:58;;;;;;;2.30;1.98;;;;;;;12.15;31.45;96984.25;5095196;28;20493;-64
2022/01/29 08:36:24;;;;;;;3.40;2.15;;;;;;;11.47;32.19;96990.13;5095152;28;20078;-64
2022/01/29 08:38:50;;;;;;;2.70;1.90;;;;;;;10.79;33.24;96978.38;5095186;28;20481;-61
2022/01/29 08:41:16;;;;;;;2.33;1.80;;;;;;;10.18;34.50;96992.38;5095052;28;20088;-63
2022/01/29 08:43:41;;;;;;;2.10;1.88;;;;;;;9.65;35.13;96999.94;5094973;28;20027;-63
2022/01/29 08:46:07;;;;;;;2.55;1.90;;;;;;;9.50;36.05;97006.41;5095023;28;20024;-63
2022/01/29 08:48:32;;;;;;;1.65;1.55;;;;;;;9.41;35.27;97007.53;5095037;28;20031;-61
2022/01/29 08:50:58;;;;;;;2.10;1.63;;;;;;;9.18;36.11;97003.75;5094886;28;20036;-64
2022/01/29 08:53:24;;;;;;;1.95;1.35;;;;;;;9.22;36.58;97007.13;5094750;28;20016;-63
2022/01/29 08:55:50;;;;;;;1.70;1.45;;;;;;;8.98;35.75;96999.03;5094840;28;20178;-62
2022/01/29 08:58:16;;;;;;;3.08;1.80;;;;;;;8.84;36.79;97005.44;5094754;28;20028;-62
2022/01/29 09:00:45;;;;;;;2.17;1.58;;;;;;;8.69;36.70;97014.47;5094741;28;20081;-63
2022/01/29 09:03:11;;;;;;;3.05;2.28;;;;;;;8.27;37.53;97023.16;5094437;28;20028;-61
2022/01/29 09:05:37;;;;;;;3.17;1.80;;;;;;;8.04;37.51;97032.28;5094572;28;20035;-62
2022/01/29 09:08:04;;;;;;;3.00;1.80;;;;;;;7.75;38.14;97028.53;5094491;28;20024;-62
2022/01/29 09:10:31;;;;;;;2.05;1.63;;;;;;;7.63;39.01;97026.16;5094493;28;20081;-63
2022/01/29 09:12:57;;;;;;;3.53;2.22;;;;;;;7.33;39.06;97024.94;5094526;28;20081;-62
2022/01/29 09:15:23;;;;;;;2.75;2.00;;;;;;;7.00;39.65;97029.81;5094058;28;20028;-62
2022/01/29 09:17:49;;;;;;;4.80;1.85;;;;;;;6.66;39.97;97026.00;5094211;28;20024;-62
2022/01/29 09:20:15;;;;;;;5.07;2.30;;;;;;;6.48;40.96;97037.50;5094106;28;20117;-62
2022/01/29 09:22:41;;;;;;;3.70;2.25;;;;;;;6.29;41.36;97023.91;5094460;28;20068;-62
2022/01/29 09:25:07;;;;;;;4.07;1.75;;;;;;;6.16;41.67;97023.16;5094258;28;20059;-62
2022/01/29 09:27:33;;;;;;;3.33;1.73;;;;;;;6.09;41.88;97031.94;5094190;28;20378;-62
2022/01/29 09:29:58;;;;;;;3.05;2.20;;;;;;;5.99;42.60;97037.19;5094134;28;20030;-62
2022/01/29 09:32:25;;;;;;;3.47;2.13;;;;;;;6.10;42.27;97031.03;5094020;28;20103;-62
2022/01/29 09:34:50;;;;;;;2.17;1.75;;;;;;;6.29;41.81;97031.69;5094031;28;20024;-61
2022/01/29 09:37:16;;;;;;;5.85;2.45;;;;;;;6.54;42.04;97034.78;5094021;28;20051;-62
2022/01/29 09:39:44;;;;;;;3.17;1.73;;;;;;;6.57;41.46;97026.13;5094021;28;20154;-62
2022/01/29 09:42:10;;;;;;;6.32;3.40;;;;;;;6.49;41.35;97031.41;5093994;28;20023;-62
2022/01/29 09:44:36;;;;;;;2.08;1.70;;;;;;;6.16;41.75;97033.56;5093804;28;20012;-62
2022/01/29 09:47:05;;;;;;;2.22;1.85;;;;;;;6.10;42.66;97029.31;5093864;28;20016;-62
2022/01/29 09:49:34;;;;;;;3.05;2.33;;;;;;;6.01;42.64;97019.88;5093882;28;20149;-62
2022/01/29 09:52:03;;;;;;;6.65;3.53;;;;;;;6.09;43.04;97011.16;5093684;28;20105;-62
2022/01/29 09:54:29;;;;;;;3.83;3.10;;;;;;;6.10;43.04;97007.66;5093662;28;20072;-62
2022/01/29 09:56:55;;;;;;;3.00;2.08;;;;;;;6.36;42.14;97012.53;5093793;28;20103;-62
2022/01/29 09:59:20;;;;;;;4.15;1.85;;;;;;;6.45;41.70;97012.38;5093612;28;20474;-62
2022/01/29 10:01:46;;;;;;;3.38;2.15;;;;;;;6.59;41.45;97003.53;5093653;28;20034;-62
2022/01/29 10:04:12;;;;;;;4.82;1.90;;;;;;;6.68;41.04;97000.81;5093621;28;20020;-62
2022/01/29 10:06:42;;;;;;;2.53;1.67;;;;;;;6.69;40.69;96997.31;5093336;28;20020;-61
2022/01/29 10:09:11;;;;;;;2.97;1.48;;;;;;;6.77;41.35;96998.97;5093575;28;20063;-62
2022/01/29 10:11:38;;;;;;;2.13;1.67;;;;;;;6.82;42.41;96991.94;5093458;28;20039;-62
2022/01/29 10:14:05;;;;;;;4.50;2.55;;;;;;;6.95;43.11;96993.47;5093438;28;20032;-62
2022/01/29 10:16:41;;;;;;;3.13;2.38;;;;;;;7.11;40.68;96993.22;5093353;28;20128;-62
2022/01/29 10:19:12;;;;;;;4.68;2.80;;;;;;;7.15;40.49;96991.41;5093475;28;20028;-62
2022/01/29 10:21:47;;;;;;;3.60;2.33;;;;;;;7.12;40.01;96994.06;5093076;28;20440;-62
2022/01/29 10:24:19;;;;;;;4.22;2.35;;;;;;;7.15;39.58;96994.88;5093442;28;20042;-61
2022/01/29 10:26:47;;;;;;;3.47;2.38;;;;;;;6.94;40.32;96994.34;5092745;28;20035;-61
2022/01/29 10:29:22;;;;;;;2.78;1.98;;;;;;;7.02;41.09;96988.16;5093190;28;20492;-62
2022/01/29 10:31:50;;;;;;;8.95;4.55;;;;;;;7.08;41.15;96988.06;5093361;28;20031;-62
2022/01/29 10:34:29;;;;;;;4.40;2.47;;;;;;;7.31;40.34;96987.66;5093329;28;20024;-62
2022/01/29 10:37:15;;;;;;;3.85;2.25;;;;;;;7.22;40.14;96986.97;5093045;28;20028;-62
2022/01/29 10:39:54;;;;;;;1.98;1.75;;;;;;;7.01;39.52;96987.28;5093110;28;20114;-61
2022/01/29 10:42:24;;;;;;;2.75;2.00;;;;;;;6.64;40.78;96986.16;5093058;28;20028;-62
2022/01/29 10:44:53;;;;;;;1.63;1.50;;;;;;;6.48;40.24;96992.44;5093103;28;20080;-61
2022/01/29 10:47:18;;;;;;;2.53;1.77;;;;;;;6.47;41.29;96995.94;5093097;28;20024;-62
2022/01/29 10:49:55;;;;;;;1.42;1.25;;;;;;;6.48;41.37;96985.53;5093163;28;20039;-61
2022/01/29 10:52:29;;;;;;;2.65;1.92;;;;;;;6.60;41.48;96989.69;5093085;28;20028;-62
2022/01/29 10:55:01;;;;;;;2.50;2.08;;;;;;;6.78;40.59;96987.66;5092861;28;20020;-63
2022/01/29 10:57:32;;;;;;;5.00;1.77;;;;;;;6.83;40.11;96978.03;5092957;28;20032;-62
2022/01/29 10:59:59;;;;;;;4.07;2.00;;;;;;;7.07;39.93;96991.53;5092952;28;20099;-62
2022/01/29 11:02:28;;;;;;;4.13;1.55;;;;;;;7.32;39.37;96983.31;5092879;28;20025;-62
2022/01/29 11:04:54;;;;;;;1.58;1.25;;;;;;;7.58;39.40;96984.56;5092795;28;20154;-61
2022/01/29 11:07:24;;;;;;;1.90;1.60;;;;;;;7.85;37.68;96984.91;5092768;28;20111;-61
2022/01/29 11:09:51;;;;;;;;;;;;;;;7.73;37.06;96983.41;5093420;28;20028;-62
2022/01/29 11:12:21;;;;;;;5.00;1.73;;;;;;;7.66;36.82;96994.84;5092890;28;19912;-63
2022/01/29 11:14:49;;;;;;;1.60;1.40;;;;;;;7.58;37.14;96984.56;5092967;28;20536;-62
2022/01/29 11:17:16;;;;;;;1.90;1.58;;;;;;;7.38;37.15;96984.94;5092684;28;20044;-62
2022/01/29 11:19:43;;;;;;;2.53;1.38;;;;;;;7.22;36.81;96987.81;5092473;28;20119;-62
2022/01/29 11:22:10;;;;;;;2.17;1.55;;;;;;;7.04;37.71;96987.25;5092709;28;20047;-62
2022/01/29 11:24:39;;;;;;;2.88;1.52;;;;;;;7.14;37.95;96987.97;5092737;28;20390;-62
2022/01/29 11:27:43;;;;;;;2.75;2.10;;;;;;;7.19;38.27;96980.06;5092760;28;20020;-61
2022/01/29 11:30:08;;;;;;;3.30;2.47;;;;;;;7.25;38.20;96982.56;5050346;28;20037;-62
2022/01/29 11:32:40;;;;;;;2.80;1.80;;;;;;;7.36;38.33;96986.72;5050311;28;20025;-61
2022/01/29 11:35:21;;;;;;;52.45;18.52;;;;;;;7.35;38.82;96980.66;5071575;28;20449;-62
2022/01/29 11:38:02;;;;;;;4.07;2.28;;;;;;;7.39;38.21;96977.13;5093591;28;20404;-62
2022/01/29 11:40:29;;;;;;;;;;;;;;;7.42;38.85;96971.84;5096512;28;20020;-62
2022/01/29 11:43:13;;;;;;;2.42;1.73;;;;;;;7.42;38.37;96974.47;5096097;28;19912;-62
2022/01/29 11:45:49;;;;;;;1.90;1.45;;;;;;;7.33;38.29;96970.28;5096445;28;20467;-62
2022/01/29 11:48:31;;;;;;;4.88;3.70;;;;;;;7.44;38.35;96967.47;5095887;28;20036;-62
2022/01/29 11:50:58;;;;;;;4.95;3.40;;;;;;;7.59;38.06;96981.09;5113444;28;20028;-62
2022/01/29 11:53:25;;;;;;;2.78;1.70;;;;;;;7.59;36.90;96981.09;5116059;28;20019;-61
2022/01/29 11:55:55;;;;;;;2.17;1.52;;;;;;;7.46;37.46;96972.63;5115186;28;20394;-63